Startpagina
METAR-TAF:

METAR-TAF

Vliegvelden :

Flughafen Münster-Osnabrück

Münster-Osnabrück, Duitsland

breedte: 52-08N, lengte: 007-42E, hoogte: 48 m

Actueel weer

Dit bericht is 22 minuten geleden gemaakt, om 11:50 UTC
Wind 6 kt uit het noorden, variërend tussen het noordwesten en het oosten
Temperatuur 14°C
Vochtigheid 28%
Druk 1027 hPa
Zicht 10 km of meer
geen wolken onder 1500 m en geen cumulonimbus

METAR: EDDG 101150Z 01006KT 310V100 CAVOK 14/M04 Q1027 NOSIG

Tijdstip: 14:12 (12:12 UTC)

Verwachting

Dit bericht is 1 uur en het 12 minuten geleden gemaakt, om 11:00 UTC
Verwachting geldig van 10 om 12 UTC tot 11 om 12 UTC
Wind 7 kt uit het noorden
Zicht 10 km of meer
geen wolken onder 1500 m en geen cumulonimbus
Wijzigt naar
van 10 om 18 UTC tot 10 om 20 UTC
Wind 4 kt uit het oostnoordoosten

TAF: EDDG 101100Z 1012/1112 01007KT CAVOK BECMG 1018/1020 07004KT

Waarnemingen en weersverwachtingen van meer dan 4000 vliegvelden (METAR en TAF).

De beschikbare stations zijn de gele en rode punten op de kaart.

Ga met uw muis naar het station om de naam te zien.

Klik dan om waarnemingen en weersverwachtingen te zien.

kaart wijzigen: klik op de groene knoppen met een zwart kruis om in te zoomen, op de groene knop met een streepje om uit te zoomen of op de groene pijlen voor aangrenzende kaarten.


METAR-TAF: